sensor_id;sensor_type;location;lat;lon;timestamp;pressure;altitude;pressure_sealevel;temperature;humidity
62031;BME280;62035;52.094;5.112;2023-02-13T00:00:56;103872.16;;;10.04;100.00
62031;BME280;62035;52.094;5.112;2023-02-13T00:03:24;103865.34;;;9.99;100.00
62031;BME280;62035;52.094;5.112;2023-02-13T00:05:51;103873.56;;;9.74;100.00
62031;BME280;62035;52.094;5.112;2023-02-13T00:08:19;103877.44;;;9.67;100.00
62031;BME280;62035;52.094;5.112;2023-02-13T00:10:47;103865.66;;;9.54;100.00
62031;BME280;62035;52.094;5.112;2023-02-13T00:13:16;103868.78;;;9.43;100.00
62031;BME280;62035;52.094;5.112;2023-02-13T00:15:44;103870.91;;;9.35;100.00
62031;BME280;62035;52.094;5.112;2023-02-13T00:18:11;103870.78;;;9.38;100.00
62031;BME280;62035;52.094;5.112;2023-02-13T00:20:39;103861.69;;;9.62;100.00
62031;BME280;62035;52.094;5.112;2023-02-13T00:23:06;103860.94;;;9.79;100.00
62031;BME280;62035;52.094;5.112;2023-02-13T00:25:34;103865.06;;;9.66;100.00
62031;BME280;62035;52.094;5.112;2023-02-13T00:28:01;103867.59;;;9.69;100.00
62031;BME280;62035;52.094;5.112;2023-02-13T00:30:30;103861.34;;;9.70;100.00
62031;BME280;62035;52.094;5.112;2023-02-13T00:32:58;103867.38;;;9.55;100.00
62031;BME280;62035;52.094;5.112;2023-02-13T00:35:25;103842.13;;;9.45;100.00
62031;BME280;62035;52.094;5.112;2023-02-13T00:37:53;103862.47;;;9.64;100.00
62031;BME280;62035;52.094;5.112;2023-02-13T00:40:21;103863.44;;;9.82;100.00
62031;BME280;62035;52.094;5.112;2023-02-13T00:42:48;103857.44;;;9.97;100.00
62031;BME280;62035;52.094;5.112;2023-02-13T00:45:16;103856.06;;;9.89;100.00
62031;BME280;62035;52.094;5.112;2023-02-13T00:47:45;103859.47;;;9.72;100.00
62031;BME280;62035;52.094;5.112;2023-02-13T00:50:12;103853.69;;;9.83;100.00
62031;BME280;62035;52.094;5.112;2023-02-13T00:52:40;103861.34;;;9.70;100.00
62031;BME280;62035;52.094;5.112;2023-02-13T00:55:07;103856.34;;;9.44;100.00
62031;BME280;62035;52.094;5.112;2023-02-13T00:57:35;103854.72;;;9.60;100.00
62031;BME280;62035;52.094;5.112;2023-02-13T01:00:04;103858.47;;;9.56;100.00
62031;BME280;62035;52.094;5.112;2023-02-13T01:02:32;103852.84;;;9.62;100.00
62031;BME280;62035;52.094;5.112;2023-02-13T01:05:02;103857.28;;;9.43;100.00
62031;BME280;62035;52.094;5.112;2023-02-13T01:07:30;103853.94;;;9.58;100.00
62031;BME280;62035;52.094;5.112;2023-02-13T01:09:57;103846.13;;;9.74;100.00
62031;BME280;62035;52.094;5.112;2023-02-13T01:12:25;103853.44;;;9.68;100.00
62031;BME280;62035;52.094;5.112;2023-02-13T01:14:53;103852.78;;;9.63;100.00
62031;BME280;62035;52.094;5.112;2023-02-13T01:17:21;103847.09;;;9.52;100.00
62031;BME280;62035;52.094;5.112;2023-02-13T01:19:48;103840.88;;;9.72;100.00
62031;BME280;62035;52.094;5.112;2023-02-13T01:22:17;103840.13;;;9.68;100.00
62031;BME280;62035;52.094;5.112;2023-02-13T01:24:45;103840.06;;;9.51;100.00
62031;BME280;62035;52.094;5.112;2023-02-13T01:27:12;103836.41;;;9.73;100.00
62031;BME280;62035;52.094;5.112;2023-02-13T01:29:40;103834.13;;;9.84;100.00
62031;BME280;62035;52.094;5.112;2023-02-13T01:32:08;103837.47;;;9.68;100.00
62031;BME280;62035;52.094;5.112;2023-02-13T01:34:35;103838.13;;;9.55;100.00
62031;BME280;62035;52.094;5.112;2023-02-13T01:37:03;103833.59;;;9.57;100.00
62031;BME280;62035;52.094;5.112;2023-02-13T01:39:32;103838.63;;;9.63;100.00
62031;BME280;62035;52.094;5.112;2023-02-13T01:41:59;103845.09;;;9.57;100.00
62031;BME280;62035;52.094;5.112;2023-02-13T01:44:45;103844.25;;;9.57;100.00
62031;BME280;62035;52.094;5.112;2023-02-13T01:47:17;103840.28;;;9.65;100.00
62031;BME280;62035;52.094;5.112;2023-02-13T01:50:04;103828.44;;;9.73;100.00
62031;BME280;62035;52.094;5.112;2023-02-13T01:52:39;103833.94;;;9.49;100.00
62031;BME280;62035;52.094;5.112;2023-02-13T01:55:12;103830.50;;;9.47;100.00
62031;BME280;62035;52.094;5.112;2023-02-13T01:57:43;103819.22;;;9.61;100.00
62031;BME280;62035;52.094;5.112;2023-02-13T02:00:18;103820.38;;;9.55;100.00
62031;BME280;62035;52.094;5.112;2023-02-13T02:02:53;103826.84;;;9.50;100.00
62031;BME280;62035;52.094;5.112;2023-02-13T02:05:26;103825.97;;;9.49;100.00
62031;BME280;62035;52.094;5.112;2023-02-13T02:07:57;103821.31;;;9.54;100.00
62031;BME280;62035;52.094;5.112;2023-02-13T02:10:30;103826.84;;;9.50;100.00
62031;BME280;62035;52.094;5.112;2023-02-13T02:13:04;103825.19;;;9.66;100.00
62031;BME280;62035;52.094;5.112;2023-02-13T02:15:34;103827.84;;;9.47;100.00
62031;BME280;62035;52.094;5.112;2023-02-13T02:18:02;103828.44;;;9.54;100.00
62031;BME280;62035;52.094;5.112;2023-02-13T02:21:14;103824.63;;;9.59;100.00
62031;BME280;62035;52.094;5.112;2023-02-13T02:30:50;103824.25;;;9.48;100.00
62031;BME280;62035;52.094;5.112;2023-02-13T02:33:53;103829.50;;;9.50;100.00
62031;BME280;62035;52.094;5.112;2023-02-13T02:36:44;103827.63;;;9.52;100.00
62031;BME280;62035;52.094;5.112;2023-02-13T02:39:28;103817.00;;;9.52;100.00
62031;BME280;62035;52.094;5.112;2023-02-13T02:42:10;103824.44;;;9.44;100.00
62031;BME280;62035;52.094;5.112;2023-02-13T02:44:55;103815.75;;;9.40;100.00
62031;BME280;62035;52.094;5.112;2023-02-13T02:47:35;103808.88;;;9.55;100.00
62031;BME280;62035;52.094;5.112;2023-02-13T02:50:35;103798.13;;;9.58;100.00
62031;BME280;62035;52.094;5.112;2023-02-13T02:53:21;103807.50;;;9.46;100.00
62031;BME280;62035;52.094;5.112;2023-02-13T02:56:03;103816.63;;;9.41;100.00
62031;BME280;62035;52.094;5.112;2023-02-13T02:58:38;103806.44;;;9.50;100.00
62031;BME280;62035;52.094;5.112;2023-02-13T03:01:29;103797.31;;;9.56;100.00
62031;BME280;62035;52.094;5.112;2023-02-13T03:04:19;103809.16;;;9.49;100.00
62031;BME280;62035;52.094;5.112;2023-02-13T03:07:13;103803.44;;;9.58;100.00
62031;BME280;62035;52.094;5.112;2023-02-13T03:09:46;103803.69;;;9.70;100.00
62031;BME280;62035;52.094;5.112;2023-02-13T03:12:37;103804.50;;;9.54;100.00
62031;BME280;62035;52.094;5.112;2023-02-13T03:15:27;103797.59;;;9.68;100.00
62031;BME280;62035;52.094;5.112;2023-02-13T03:17:56;103804.78;;;9.66;100.00
62031;BME280;62035;52.094;5.112;2023-02-13T03:20:45;103808.16;;;9.70;100.00
62031;BME280;62035;52.094;5.112;2023-02-13T03:23:48;103813.19;;;9.57;100.00
62031;BME280;62035;52.094;5.112;2023-02-13T03:26:37;103818.75;;;9.32;100.00
62031;BME280;62035;52.094;5.112;2023-02-13T03:29:26;103825.38;;;9.43;100.00
62031;BME280;62035;52.094;5.112;2023-02-13T03:32:27;103814.47;;;9.49;100.00
62031;BME280;62035;52.094;5.112;2023-02-13T03:35:13;103817.66;;;9.57;100.00
62031;BME280;62035;52.094;5.112;2023-02-13T03:38:12;103810.75;;;9.53;100.00
62031;BME280;62035;52.094;5.112;2023-02-13T03:40:48;103814.81;;;9.60;100.00
62031;BME280;62035;52.094;5.112;2023-02-13T03:43:44;103816.41;;;9.45;100.00
62031;BME280;62035;52.094;5.112;2023-02-13T03:46:24;103819.44;;;9.56;100.00
62031;BME280;62035;52.094;5.112;2023-02-13T03:48:55;103808.88;;;9.74;100.00
62031;BME280;62035;52.094;5.112;2023-02-13T03:51:47;103803.63;;;9.72;100.00
62031;BME280;62035;52.094;5.112;2023-02-13T03:54:22;103805.72;;;9.65;100.00
62031;BME280;62035;52.094;5.112;2023-02-13T03:57:17;103804.84;;;9.46;100.00
62031;BME280;62035;52.094;5.112;2023-02-13T04:00:06;103802.56;;;9.57;100.00
62031;BME280;62035;52.094;5.112;2023-02-13T04:02:43;103793.47;;;9.43;100.00
62031;BME280;62035;52.094;5.112;2023-02-13T04:05:21;103802.97;;;9.48;100.00
62031;BME280;62035;52.094;5.112;2023-02-13T04:07:52;103803.38;;;9.59;100.00
62031;BME280;62035;52.094;5.112;2023-02-13T04:10:21;103800.97;;;9.53;100.00
62031;BME280;62035;52.094;5.112;2023-02-13T04:12:59;103800.53;;;9.44;100.00
62031;BME280;62035;52.094;5.112;2023-02-13T04:15:38;103805.44;;;9.53;100.00
62031;BME280;62035;52.094;5.112;2023-02-13T04:18:15;103784.50;;;9.45;100.00
62031;BME280;62035;52.094;5.112;2023-02-13T04:20:47;103798.88;;;9.60;100.00
62031;BME280;62035;52.094;5.112;2023-02-13T04:23:15;103789.63;;;9.50;100.00
62031;BME280;62035;52.094;5.112;2023-02-13T04:25:44;103797.66;;;9.67;100.00
62031;BME280;62035;52.094;5.112;2023-02-13T04:28:17;103793.34;;;9.64;100.00
62031;BME280;62035;52.094;5.112;2023-02-13T04:30:44;103800.91;;;9.55;100.00
62031;BME280;62035;52.094;5.112;2023-02-13T04:33:12;103799.38;;;9.68;100.00
62031;BME280;62035;52.094;5.112;2023-02-13T04:35:40;103803.44;;;9.58;100.00
62031;BME280;62035;52.094;5.112;2023-02-13T04:38:07;103800.47;;;9.45;100.00
62031;BME280;62035;52.094;5.112;2023-02-13T04:40:35;103803.72;;;9.52;100.00
62031;BME280;62035;52.094;5.112;2023-02-13T04:43:02;103795.06;;;9.47;100.00
62031;BME280;62035;52.094;5.112;2023-02-13T04:45:32;103793.69;;;9.38;100.00
62031;BME280;62035;52.094;5.112;2023-02-13T04:47:59;103794.13;;;9.48;100.00
62031;BME280;62035;52.094;5.112;2023-02-13T04:50:27;103793.47;;;9.43;100.00
62031;BME280;62035;52.094;5.112;2023-02-13T04:52:55;103792.94;;;9.55;100.00
62031;BME280;62035;52.094;5.112;2023-02-13T04:55:24;103793.81;;;9.55;100.00
62031;BME280;62035;52.094;5.112;2023-02-13T04:57:54;103790.28;;;9.55;100.00
62031;BME280;62035;52.094;5.112;2023-02-13T05:00:24;103773.22;;;9.40;100.00
62031;BME280;62035;52.094;5.112;2023-02-13T05:02:59;103786.75;;;9.73;100.00
62031;BME280;62035;52.094;5.112;2023-02-13T05:05:30;103783.78;;;9.60;100.00
62031;BME280;62035;52.094;5.112;2023-02-13T05:07:57;103783.88;;;9.59;100.00
62031;BME280;62035;52.094;5.112;2023-02-13T05:10:25;103781.44;;;9.73;100.00
62031;BME280;62035;52.094;5.112;2023-02-13T05:12:53;103771.94;;;9.86;100.00
62031;BME280;62035;52.094;5.112;2023-02-13T05:15:21;103769.22;;;9.88;100.00
62031;BME280;62035;52.094;5.112;2023-02-13T05:17:48;103773.03;;;9.82;100.00
62031;BME280;62035;52.094;5.112;2023-02-13T05:20:18;103776.53;;;9.64;100.00
62031;BME280;62035;52.094;5.112;2023-02-13T05:22:47;103770.00;;;9.52;100.00
62031;BME280;62035;52.094;5.112;2023-02-13T05:25:35;103762.16;;;9.87;100.00
62031;BME280;62035;52.094;5.112;2023-02-13T05:28:05;103765.75;;;9.86;100.00
62031;BME280;62035;52.094;5.112;2023-02-13T05:30:53;103771.81;;;9.89;100.00
62031;BME280;62035;52.094;5.112;2023-02-13T05:33:20;103768.63;;;9.81;100.00
62031;BME280;62035;52.094;5.112;2023-02-13T05:35:49;103751.75;;;9.82;100.00
62031;BME280;62035;52.094;5.112;2023-02-13T05:38:16;103769.50;;;9.82;100.00
62031;BME280;62035;52.094;5.112;2023-02-13T05:40:44;103766.63;;;9.86;100.00
62031;BME280;62035;52.094;5.112;2023-02-13T05:43:11;103766.75;;;9.83;100.00
62031;BME280;62035;52.094;5.112;2023-02-13T05:45:39;103768.69;;;9.98;100.00
62031;BME280;62035;52.094;5.112;2023-02-13T05:48:06;103773.38;;;9.93;100.00
62031;BME280;62035;52.094;5.112;2023-02-13T05:50:34;103770.31;;;10.01;100.00
62031;BME280;62035;52.094;5.112;2023-02-13T05:53:03;103774.19;;;10.13;100.00
62031;BME280;62035;52.094;5.112;2023-02-13T05:55:31;103776.75;;;9.97;100.00
62031;BME280;62035;52.094;5.112;2023-02-13T05:57:58;103778.34;;;9.82;100.00
62031;BME280;62035;52.094;5.112;2023-02-13T06:00:26;103783.66;;;9.82;100.00
62031;BME280;62035;52.094;5.112;2023-02-13T06:02:53;103772.59;;;9.91;100.00
62031;BME280;62035;52.094;5.112;2023-02-13T06:05:21;103774.41;;;10.08;100.00
62031;BME280;62035;52.094;5.112;2023-02-13T06:07:48;103773.38;;;9.93;100.00
62031;BME280;62035;52.094;5.112;2023-02-13T06:10:18;103775.25;;;9.91;100.00
62031;BME280;62035;52.094;5.112;2023-02-13T06:12:45;103778.56;;;9.96;100.00
62031;BME280;62035;52.094;5.112;2023-02-13T06:15:13;103768.78;;;9.97;100.00
62031;BME280;62035;52.094;5.112;2023-02-13T06:17:41;103779.16;;;10.01;100.00
62031;BME280;62035;52.094;5.112;2023-02-13T06:20:09;103771.13;;;10.03;100.00
62031;BME280;62035;52.094;5.112;2023-02-13T06:22:37;103770.94;;;9.89;100.00
62031;BME280;62035;52.094;5.112;2023-02-13T06:25:05;103775.25;;;9.73;100.00
62031;BME280;62035;52.094;5.112;2023-02-13T06:27:34;103782.44;;;9.70;100.00
62031;BME280;62035;52.094;5.112;2023-02-13T06:30:02;103775.97;;;9.76;100.00
62031;BME280;62035;52.094;5.112;2023-02-13T06:32:29;103771.81;;;9.89;100.00
62031;BME280;62035;52.094;5.112;2023-02-13T06:34:57;103773.22;;;9.96;100.00
62031;BME280;62035;52.094;5.112;2023-02-13T06:37:24;103776.50;;;10.01;100.00
62031;BME280;62035;52.094;5.112;2023-02-13T06:39:52;103771.69;;;10.10;100.00
62031;BME280;62035;52.094;5.112;2023-02-13T06:42:19;103777.75;;;9.94;100.00
62031;BME280;62035;52.094;5.112;2023-02-13T06:44:48;103776.44;;;10.03;100.00
62031;BME280;62035;52.094;5.112;2023-02-13T06:47:16;103772.06;;;10.02;100.00
62031;BME280;62035;52.094;5.112;2023-02-13T06:49:44;103772.31;;;10.15;100.00
62031;BME280;62035;52.094;5.112;2023-02-13T06:52:11;103766.50;;;10.07;100.00
62031;BME280;62035;52.094;5.112;2023-02-13T06:54:39;103771.94;;;9.86;100.00
62031;BME280;62035;52.094;5.112;2023-02-13T06:57:07;103774.03;;;9.98;100.00
62031;BME280;62035;52.094;5.112;2023-02-13T06:59:34;103772.50;;;9.93;100.00
62031;BME280;62035;52.094;5.112;2023-02-13T07:02:03;103774.09;;;9.97;100.00
62031;BME280;62035;52.094;5.112;2023-02-13T07:04:31;103776.34;;;10.04;100.00
62031;BME280;62035;52.094;5.112;2023-02-13T07:06:58;103767.97;;;9.95;100.00
62031;BME280;62035;52.094;5.112;2023-02-13T07:09:26;103770.78;;;9.73;100.00
62031;BME280;62035;52.094;5.112;2023-02-13T07:11:53;103777.16;;;9.31;100.00
62031;BME280;62035;52.094;5.112;2023-02-13T07:14:21;103791.00;;;9.19;100.00
62031;BME280;62035;52.094;5.112;2023-02-13T07:16:49;103796.06;;;9.05;100.00
62031;BME280;62035;52.094;5.112;2023-02-13T07:19:18;103797.66;;;9.09;100.00
62031;BME280;62035;52.094;5.112;2023-02-13T07:21:45;103794.84;;;8.92;100.00
62031;BME280;62035;52.094;5.112;2023-02-13T07:24:13;103802.56;;;8.78;100.00
62031;BME280;62035;52.094;5.112;2023-02-13T07:26:40;103803.34;;;8.80;100.00
62031;BME280;62035;52.094;5.112;2023-02-13T07:29:08;103802.91;;;8.70;100.00
62031;BME280;62035;52.094;5.112;2023-02-13T07:31:36;103800.91;;;8.75;100.00
62031;BME280;62035;52.094;5.112;2023-02-13T07:34:04;103803.22;;;8.62;100.00
62031;BME280;62035;52.094;5.112;2023-02-13T07:36:33;103806.00;;;8.59;100.00
62031;BME280;62035;52.094;5.112;2023-02-13T07:39:01;103816.88;;;8.53;100.00
62031;BME280;62035;52.094;5.112;2023-02-13T07:41:28;103824.56;;;8.59;100.00
62031;BME280;62035;52.094;5.112;2023-02-13T07:43:56;103823.03;;;8.54;100.00
62031;BME280;62035;52.094;5.112;2023-02-13T07:46:23;103831.94;;;8.53;100.00
62031;BME280;62035;52.094;5.112;2023-02-13T07:48:51;103829.44;;;8.48;100.00
62031;BME280;62035;52.094;5.112;2023-02-13T07:51:18;103828.06;;;8.40;100.00
62031;BME280;62035;52.094;5.112;2023-02-13T07:53:51;103840.06;;;8.48;100.00
62031;BME280;62035;52.094;5.112;2023-02-13T07:56:19;103838.59;;;8.41;100.00
62031;BME280;62035;52.094;5.112;2023-02-13T07:58:47;103850.44;;;8.54;100.00
62031;BME280;62035;52.094;5.112;2023-02-13T08:01:15;103844.22;;;8.55;100.00
62031;BME280;62035;52.094;5.112;2023-02-13T08:03:47;103843.91;;;8.41;100.00
62031;BME280;62035;52.094;5.112;2023-02-13T08:06:17;103849.13;;;8.43;100.00
62031;BME280;62035;52.094;5.112;2023-02-13T08:08:46;103854.50;;;8.41;100.00
62031;BME280;62035;52.094;5.112;2023-02-13T08:11:23;103864.63;;;8.53;100.00
62031;BME280;62035;52.094;5.112;2023-02-13T08:14:11;103856.25;;;8.42;100.00
62031;BME280;62035;52.094;5.112;2023-02-13T08:16:39;103854.59;;;8.40;100.00
62031;BME280;62035;52.094;5.112;2023-02-13T08:19:06;103864.91;;;8.24;100.00
62031;BME280;62035;52.094;5.112;2023-02-13T08:21:34;103852.53;;;8.46;100.00
62031;BME280;62035;52.094;5.112;2023-02-13T08:24:03;103855.19;;;8.46;100.00
62031;BME280;62035;52.094;5.112;2023-02-13T08:26:33;103863.53;;;8.59;100.00
62031;BME280;62035;52.094;5.112;2023-02-13T08:29:02;103861.06;;;8.54;100.00
62031;BME280;62035;52.094;5.112;2023-02-13T08:31:30;103855.56;;;8.59;100.00
62031;BME280;62035;52.094;5.112;2023-02-13T08:33:57;103848.41;;;8.61;100.00
62031;BME280;62035;52.094;5.112;2023-02-13T08:36:25;103862.78;;;8.55;100.00
62031;BME280;62035;52.094;5.112;2023-02-13T08:38:53;103864.63;;;8.75;100.00
62031;BME280;62035;52.094;5.112;2023-02-13T08:41:20;103847.19;;;8.90;100.00
62031;BME280;62035;52.094;5.112;2023-02-13T08:43:50;103851.31;;;8.77;100.00
62031;BME280;62035;52.094;5.112;2023-02-13T08:46:17;103853.22;;;8.73;100.00
62031;BME280;62035;52.094;5.112;2023-02-13T08:48:45;103858.84;;;8.86;100.00
62031;BME280;62035;52.094;5.112;2023-02-13T08:51:13;103860.28;;;8.94;100.00
62031;BME280;62035;52.094;5.112;2023-02-13T08:53:41;103847.78;;;8.96;100.00
62031;BME280;62035;52.094;5.112;2023-02-13T08:56:09;103854.09;;;8.74;100.00
62031;BME280;62035;52.094;5.112;2023-02-13T08:58:37;103854.09;;;8.94;100.00
62031;BME280;62035;52.094;5.112;2023-02-13T09:01:07;103851.78;;;9.07;100.00
62031;BME280;62035;52.094;5.112;2023-02-13T09:03:35;103852.13;;;9.19;100.00
62031;BME280;62035;52.094;5.112;2023-02-13T09:06:03;103854.06;;;9.16;100.00
62031;BME280;62035;52.094;5.112;2023-02-13T09:08:31;103854.63;;;9.22;100.00
62031;BME280;62035;52.094;5.112;2023-02-13T09:11:02;103859.88;;;9.24;100.00
62031;BME280;62035;52.094;5.112;2023-02-13T09:13:33;103855.56;;;9.42;100.00
62031;BME280;62035;52.094;5.112;2023-02-13T09:16:04;103847.44;;;9.45;100.00
62031;BME280;62035;52.094;5.112;2023-02-13T09:18:34;103849.03;;;9.28;100.00
62031;BME280;62035;52.094;5.112;2023-02-13T09:21:03;103842.78;;;9.50;100.00
62031;BME280;62035;52.094;5.112;2023-02-13T09:23:34;103848.84;;;9.53;100.00
62031;BME280;62035;52.094;5.112;2023-02-13T09:26:04;103845.53;;;9.67;100.00
62031;BME280;62035;52.094;5.112;2023-02-13T09:28:34;103848.47;;;9.61;100.00
62031;BME280;62035;52.094;5.112;2023-02-13T09:31:04;103843.91;;;9.83;100.00
62031;BME280;62035;52.094;5.112;2023-02-13T09:33:34;103844.13;;;9.79;100.00
62031;BME280;62035;52.094;5.112;2023-02-13T09:36:05;103846.97;;;9.55;100.00
62031;BME280;62035;52.094;5.112;2023-02-13T09:38:34;103843.59;;;9.52;100.00
62031;BME280;62035;52.094;5.112;2023-02-13T09:41:04;103840.66;;;9.58;100.00
62031;BME280;62035;52.094;5.112;2023-02-13T09:43:43;103845.53;;;9.67;100.00
62031;BME280;62035;52.094;5.112;2023-02-13T09:46:19;103851.97;;;9.61;100.00
62031;BME280;62035;52.094;5.112;2023-02-13T09:48:52;103850.84;;;9.67;100.00
62031;BME280;62035;52.094;5.112;2023-02-13T09:51:23;103851.28;;;9.58;100.00
62031;BME280;62035;52.094;5.112;2023-02-13T09:53:57;103850.25;;;9.60;100.00
62031;BME280;62035;52.094;5.112;2023-02-13T09:56:37;103835.69;;;9.69;100.00
62031;BME280;62035;52.094;5.112;2023-02-13T09:59:34;103838.88;;;9.77;100.00
62031;BME280;62035;52.094;5.112;2023-02-13T10:02:22;103841.81;;;9.90;100.00
62031;BME280;62035;52.094;5.112;2023-02-13T10:05:13;103834.56;;;9.93;100.00
62031;BME280;62035;52.094;5.112;2023-02-13T10:07:55;103838.94;;;10.13;100.00
62031;BME280;62035;52.094;5.112;2023-02-13T10:10:37;103832.84;;;9.92;100.00
62031;BME280;62035;52.094;5.112;2023-02-13T10:13:27;103834.63;;;9.92;100.00
62031;BME280;62035;52.094;5.112;2023-02-13T10:16:09;103833.34;;;10.19;100.00
62031;BME280;62035;52.094;5.112;2023-02-13T10:18:48;103807.72;;;10.17;100.00
62031;BME280;62035;52.094;5.112;2023-02-13T10:21:22;103835.25;;;10.16;100.00
62031;BME280;62035;52.094;5.112;2023-02-13T10:23:59;103826.34;;;10.17;100.00
62031;BME280;62035;52.094;5.112;2023-02-13T10:26:35;103827.06;;;10.39;100.00
62031;BME280;62035;52.094;5.112;2023-02-13T10:29:15;103835.91;;;10.40;100.00
62031;BME280;62035;52.094;5.112;2023-02-13T10:32:25;103814.28;;;10.46;100.00
62031;BME280;62035;52.094;5.112;2023-02-13T10:34:59;103816.25;;;10.42;100.00
62031;BME280;62035;52.094;5.112;2023-02-13T10:37:42;103814.00;;;10.52;100.00
62031;BME280;62035;52.094;5.112;2023-02-13T10:40:16;103804.13;;;10.54;100.00
62031;BME280;62035;52.094;5.112;2023-02-13T10:42:48;103811.75;;;10.96;100.00
62031;BME280;62035;52.094;5.112;2023-02-13T10:45:36;103818.63;;;11.00;100.00
62031;BME280;62035;52.094;5.112;2023-02-13T10:48:34;103815.81;;;11.03;100.00
62031;BME280;62035;52.094;5.112;2023-02-13T10:51:20;103809.84;;;10.98;100.00
62031;BME280;62035;52.094;5.112;2023-02-13T10:54:08;103815.19;;;10.98;100.00
62031;BME280;62035;52.094;5.112;2023-02-13T10:56:54;103805.31;;;11.17;100.00
62031;BME280;62035;52.094;5.112;2023-02-13T10:59:43;103808.28;;;11.11;100.00
62031;BME280;62035;52.094;5.112;2023-02-13T11:02:27;103803.06;;;11.25;100.00
62031;BME280;62035;52.094;5.112;2023-02-13T11:04:58;103799.97;;;11.17;100.00
62031;BME280;62035;52.094;5.112;2023-02-13T11:07:29;103800.47;;;11.24;100.00
62031;BME280;62035;52.094;5.112;2023-02-13T11:10:05;103809.09;;;11.29;100.00
62031;BME280;62035;52.094;5.112;2023-02-13T11:12:42;103795.28;;;11.05;100.00
62031;BME280;62035;52.094;5.112;2023-02-13T11:15:21;103798.16;;;11.18;100.00
62031;BME280;62035;52.094;5.112;2023-02-13T11:17:52;103794.91;;;11.28;100.00
62031;BME280;62035;52.094;5.112;2023-02-13T11:20:29;103790.41;;;11.46;100.00
62031;BME280;62035;52.094;5.112;2023-02-13T11:23:32;103784.47;;;11.41;100.00
62031;BME280;62035;52.094;5.112;2023-02-13T11:26:06;103783.19;;;11.15;100.00
62031;BME280;62035;52.094;5.112;2023-02-13T11:28:37;103785.84;;;11.48;100.00
62031;BME280;62035;52.094;5.112;2023-02-13T11:31:23;103767.41;;;11.77;100.00
62031;BME280;62035;52.094;5.112;2023-02-13T11:33:53;103762.06;;;11.77;100.00
62031;BME280;62035;52.094;5.112;2023-02-13T11:36:26;103771.94;;;11.75;100.00
62031;BME280;62035;52.094;5.112;2023-02-13T11:39:00;103759.75;;;11.86;100.00
62031;BME280;62035;52.094;5.112;2023-02-13T11:41:31;103759.91;;;11.83;100.00
62031;BME280;62035;52.094;5.112;2023-02-13T11:44:19;103757.13;;;12.00;100.00
62031;BME280;62035;52.094;5.112;2023-02-13T11:46:52;103754.41;;;11.86;100.00
62031;BME280;62035;52.094;5.112;2023-02-13T11:49:23;103747.88;;;11.92;100.00
62031;BME280;62035;52.094;5.112;2023-02-13T11:51:54;103754.81;;;12.10;100.00
62031;BME280;62035;52.094;5.112;2023-02-13T11:54:28;103744.88;;;12.28;100.00
62031;BME280;62035;52.094;5.112;2023-02-13T11:57:00;103744.16;;;11.94;100.00
62031;BME280;62035;52.094;5.112;2023-02-13T11:59:31;103741.50;;;11.94;100.00
62031;BME280;62035;52.094;5.112;2023-02-13T12:02:13;103739.78;;;11.93;100.00
62031;BME280;62035;52.094;5.112;2023-02-13T12:04:44;103729.16;;;11.76;100.00
62031;BME280;62035;52.094;5.112;2023-02-13T12:07:16;103734.28;;;11.96;100.00
62031;BME280;62035;52.094;5.112;2023-02-13T12:09:52;103736.16;;;11.79;100.00
62031;BME280;62035;52.094;5.112;2023-02-13T12:12:29;103728.00;;;11.97;100.00
62031;BME280;62035;52.094;5.112;2023-02-13T12:15:03;103718.09;;;11.99;100.00
62031;BME280;62035;52.094;5.112;2023-02-13T12:17:43;103721.47;;;12.17;100.00
62031;BME280;62035;52.094;5.112;2023-02-13T12:20:13;103716.66;;;12.08;100.00
62031;BME280;62035;52.094;5.112;2023-02-13T12:22:50;103723.72;;;12.09;100.00
62031;BME280;62035;52.094;5.112;2023-02-13T12:25:47;103728.13;;;12.40;100.00
62031;BME280;62035;52.094;5.112;2023-02-13T12:28:35;103726.72;;;12.19;100.00
62031;BME280;62035;52.094;5.112;2023-02-13T12:31:29;103714.22;;;12.35;100.00
62031;BME280;62035;52.094;5.112;2023-02-13T12:34:19;103715.94;;;12.50;100.00
62031;BME280;62035;52.094;5.112;2023-02-13T12:37:27;103713.56;;;12.46;100.00
62031;BME280;62035;52.094;5.112;2023-02-13T12:40:22;103704.00;;;12.42;100.00
62031;BME280;62035;52.094;5.112;2023-02-13T12:43:27;103708.47;;;12.41;100.00
62031;BME280;62035;52.094;5.112;2023-02-13T12:46:15;103708.28;;;12.44;100.00
62031;BME280;62035;52.094;5.112;2023-02-13T12:48:59;103707.84;;;12.52;100.00
62031;BME280;62035;52.094;5.112;2023-02-13T12:51:48;103710.94;;;12.30;100.00
62031;BME280;62035;52.094;5.112;2023-02-13T12:54:38;103699.16;;;12.48;100.00
62031;BME280;62035;52.094;5.112;2023-02-13T12:57:26;103701.69;;;12.65;100.00
62031;BME280;62035;52.094;5.112;2023-02-13T13:00:23;103692.72;;;12.81;100.00
62031;BME280;62035;52.094;5.112;2023-02-13T13:03:15;103681.06;;;12.82;100.00
62031;BME280;62035;52.094;5.112;2023-02-13T13:06:15;103690.34;;;12.90;100.00
62031;BME280;62035;52.094;5.112;2023-02-13T13:12:22;103676.09;;;12.90;100.00
62031;BME280;62035;52.094;5.112;2023-02-13T13:15:03;103672.56;;;12.89;100.00
62031;BME280;62035;52.094;5.112;2023-02-13T13:17:51;103672.97;;;13.12;100.00
62031;BME280;62035;52.094;5.112;2023-02-13T13:20:51;103664.84;;;12.85;100.00
62031;BME280;62035;52.094;5.112;2023-02-13T13:23:34;103666.19;;;12.78;100.00
62031;BME280;62035;52.094;5.112;2023-02-13T13:26:13;103656.44;;;13.05;100.00
62031;BME280;62035;52.094;5.112;2023-02-13T13:28:50;103660.75;;;13.22;100.00
62031;BME280;62035;52.094;5.112;2023-02-13T13:31:22;103661.50;;;13.24;100.00
62031;BME280;62035;52.094;5.112;2023-02-13T13:34:00;103649.16;;;13.35;100.00
62031;BME280;62035;52.094;5.112;2023-02-13T13:36:37;103647.59;;;13.19;100.00